Time;durP1;ratioP1;P1;durP2;ratioP2;P2;SDS_P1;SDS_P2;PMS_P1;PMS_P2;Temp;Humidity;BMP_temperature;BMP_pressure;BME280_temperature;BME280_humidity;BME280_pressure;Samples;Min_cycle;Max_cycle;Signal;HPM_P1;HPM_P2
2021/10/25 00:00:12;;;;;;;7.50;5.10;;;;;;;3.95;82.03;102169.53;5009711;28;20222;-72
2021/10/25 00:02:37;;;;;;;9.37;5.53;;;;;;;3.96;82.08;102172.13;5010939;28;20227;-73
2021/10/25 00:05:04;;;;;;;10.43;5.10;;;;;;;3.94;81.79;102175.34;5010741;28;20222;-72
2021/10/25 00:07:29;;;;;;;8.77;5.13;;;;;;;3.92;82.03;102177.78;5011232;28;20202;-72
2021/10/25 00:09:54;;;;;;;8.80;5.23;;;;;;;3.82;82.03;102167.81;5010313;28;20188;-72
2021/10/25 00:12:20;;;;;;;7.57;4.90;;;;;;;3.83;82.70;102159.44;5009593;28;20207;-72
2021/10/25 00:14:45;;;;;;;9.77;4.70;;;;;;;3.83;82.68;102164.53;5010767;28;20290;-73
2021/10/25 00:17:10;;;;;;;9.57;5.23;;;;;;;3.83;82.94;102162.00;5010232;28;20198;-73
2021/10/25 00:19:36;;;;;;;9.57;5.10;;;;;;;3.84;82.98;102163.75;5008870;28;20250;-72
2021/10/25 00:22:03;;;;;;;10.97;4.83;;;;;;;3.85;83.08;102162.06;5009861;28;20214;-73
2021/10/25 00:24:28;;;;;;;8.93;5.13;;;;;;;3.81;82.68;102157.56;5009363;28;20203;-72
2021/10/25 00:26:53;;;;;;;7.37;4.60;;;;;;;3.85;82.83;102155.34;5008788;28;20210;-73
2021/10/25 00:29:19;;;;;;;11.93;5.30;;;;;;;3.77;82.92;102156.50;5007875;28;20707;-73
2021/10/25 00:31:44;;;;;;;9.00;5.20;;;;;;;3.72;83.34;102155.31;5011050;28;20257;-72
2021/10/25 00:34:11;;;;;;;9.30;4.90;;;;;;;3.69;82.99;102152.56;5011015;28;20207;-73
2021/10/25 00:36:37;;;;;;;9.90;4.93;;;;;;;3.71;83.41;102143.44;5007857;28;20679;-73
2021/10/25 00:39:04;;;;;;;9.23;5.17;;;;;;;3.72;83.31;102141.78;5008868;28;20203;-72
2021/10/25 00:41:30;;;;;;;7.23;5.30;;;;;;;3.69;83.33;102142.41;5009984;28;20187;-73
2021/10/25 00:43:56;;;;;;;10.27;5.73;;;;;;;3.67;83.46;102145.63;5008965;28;20203;-73
2021/10/25 00:46:21;;;;;;;8.80;5.47;;;;;;;3.68;83.35;102143.22;5009663;28;20202;-73
2021/10/25 00:48:47;;;;;;;10.67;5.37;;;;;;;3.67;84.16;102150.69;5010651;28;20245;-72
2021/10/25 00:51:14;;;;;;;9.87;5.67;;;;;;;3.73;84.38;102141.00;5008631;28;20692;-73
2021/10/25 00:53:41;;;;;;;10.00;5.70;;;;;;;3.77;84.60;102136.22;5007798;28;20320;-72
2021/10/25 00:56:07;;;;;;;11.10;5.47;;;;;;;3.74;84.06;102136.03;5008188;28;20278;-72
2021/10/25 00:58:35;;;;;;;9.23;5.07;;;;;;;3.77;84.03;102138.75;5009091;28;20219;-73
2021/10/25 01:01:00;;;;;;;5.80;5.17;;;;;;;3.77;84.65;102132.84;5011145;28;20763;-72
2021/10/25 01:03:26;;;;;;;8.77;5.17;;;;;;;3.72;84.28;102135.03;5009006;28;20350;-73
2021/10/25 01:05:52;;;;;;;9.03;5.30;;;;;;;3.65;83.73;102134.53;5009154;28;20211;-73
2021/10/25 01:08:17;;;;;;;7.17;5.10;;;;;;;3.57;83.64;102134.03;5009681;28;20188;-73
2021/10/25 01:10:44;;;;;;;12.43;5.60;;;;;;;3.59;83.32;102135.00;4991428;28;20183;-72
2021/10/25 01:13:10;;;;;;;8.17;4.67;;;;;;;3.61;83.58;102125.88;5009065;28;20207;-73
2021/10/25 01:15:36;;;;;;;10.90;5.40;;;;;;;3.58;83.63;102132.38;5009643;28;20195;-72
2021/10/25 01:18:02;;;;;;;8.77;5.50;;;;;;;3.61;83.30;102124.97;5008838;28;20202;-73
2021/10/25 01:20:30;;;;;;;11.63;5.53;;;;;;;3.61;83.90;102125.88;5009559;28;20203;-72
2021/10/25 01:22:56;;;;;;;7.87;4.93;;;;;;;3.56;83.17;102124.69;5008750;28;20191;-73
2021/10/25 01:25:23;;;;;;;8.77;5.23;;;;;;;3.53;83.99;102128.63;5008649;28;20206;-73
2021/10/25 01:27:50;;;;;;;7.10;5.00;;;;;;;3.51;84.13;102126.03;5006563;28;20223;-73
2021/10/25 01:30:19;;;;;;;9.47;5.10;;;;;;;3.52;84.17;102122.72;5007804;28;20330;-72
2021/10/25 01:32:47;;;;;;;9.53;5.03;;;;;;;3.51;84.63;102125.13;5002923;28;20190;-73
2021/10/25 01:35:13;;;;;;;6.77;4.60;;;;;;;3.54;84.50;102113.53;5008526;28;20175;-73
2021/10/25 01:37:39;;;;;;;9.53;5.00;;;;;;;3.52;84.14;102107.53;5006233;28;20584;-73
2021/10/25 01:40:06;;;;;;;9.57;4.80;;;;;;;3.50;83.92;102105.66;5008590;28;20207;-73
2021/10/25 01:42:32;;;;;;;10.90;5.37;;;;;;;3.40;84.44;102109.22;5000035;28;20191;-73
2021/10/25 01:45:01;;;;;;;8.97;5.17;;;;;;;3.45;84.98;102101.94;5006788;28;20199;-72
2021/10/25 01:47:26;;;;;;;9.80;5.37;;;;;;;3.47;84.78;102106.34;5008146;28;20565;-73
2021/10/25 01:49:52;;;;;;;8.07;5.50;;;;;;;3.46;84.36;102109.66;5007787;28;20180;-73
2021/10/25 01:52:17;;;;;;;7.70;5.27;;;;;;;3.41;84.36;102105.03;5007472;28;20187;-73
2021/10/25 01:54:50;;;;;;;8.17;5.77;;;;;;;3.44;85.09;102101.06;5007687;28;20290;-73
2021/10/25 01:57:15;;;;;;;8.70;5.20;;;;;;;3.41;84.45;102094.91;5005501;28;20243;-73
2021/10/25 01:59:41;;;;;;;10.97;5.60;;;;;;;3.40;84.53;102104.16;5009880;28;20632;-72
2021/10/25 02:02:07;;;;;;;10.50;5.43;;;;;;;3.42;83.91;102104.25;5008299;28;20282;-72
2021/10/25 02:04:33;;;;;;;6.77;4.87;;;;;;;3.35;84.53;102100.44;4991626;28;20195;-73
2021/10/25 02:06:59;;;;;;;8.07;5.50;;;;;;;3.31;84.31;102097.59;5006444;28;20683;-74
2021/10/25 02:09:25;;;;;;;8.47;5.47;;;;;;;3.33;84.16;102101.09;5011768;28;20191;-74
2021/10/25 02:11:51;;;;;;;7.23;4.83;;;;;;;3.31;84.19;102100.13;5011496;28;20187;-73
2021/10/25 02:14:17;;;;;;;9.03;5.37;;;;;;;3.31;84.28;102101.00;5011030;28;20211;-73
2021/10/25 02:16:44;;;;;;;7.87;5.30;;;;;;;3.24;84.55;102096.31;5009412;28;20215;-73
2021/10/25 02:19:10;;;;;;;9.27;4.87;;;;;;;3.24;84.01;102091.25;5013319;28;20191;-73
2021/10/25 02:21:42;;;;;;;10.43;5.47;;;;;;;3.21;85.00;102083.44;5010994;28;21048;-73
2021/10/25 02:24:07;;;;;;;10.40;5.07;;;;;;;3.28;85.48;102087.25;5012046;28;20218;-73
2021/10/25 02:26:34;;;;;;;12.03;5.70;;;;;;;3.29;84.67;102086.47;5011245;28;20190;-73
2021/10/25 02:29:00;;;;;;;8.47;5.37;;;;;;;3.28;84.91;102083.09;5012652;28;20195;-74
2021/10/25 02:31:26;;;;;;;7.80;4.90;;;;;;;3.23;85.29;102084.44;5012812;28;20191;-73
2021/10/25 02:33:52;;;;;;;9.60;5.83;;;;;;;3.22;85.19;102085.19;5010640;28;20986;-73
2021/10/25 02:36:17;;;;;;;9.67;5.13;;;;;;;3.24;84.92;102086.19;4993268;28;20188;-73
2021/10/25 02:38:43;;;;;;;7.47;4.83;;;;;;;3.27;85.30;102082.97;5011905;28;20191;-73
2021/10/25 02:41:10;;;;;;;6.57;4.60;;;;;;;3.25;85.15;102079.44;5006481;28;20295;-73
2021/10/25 02:43:36;;;;;;;8.00;5.23;;;;;;;3.25;85.86;102079.44;5010747;28;20195;-72
2021/10/25 02:46:03;;;;;;;8.57;5.43;;;;;;;3.29;86.04;102078.88;5011685;28;20184;-72
2021/10/25 02:48:29;;;;;;;10.10;5.67;;;;;;;3.30;85.72;102076.47;5011112;28;20194;-72
2021/10/25 02:50:56;;;;;;;8.57;5.40;;;;;;;3.31;85.67;102070.63;5004867;28;20238;-73
2021/10/25 02:53:23;;;;;;;15.03;6.20;;;;;;;3.32;86.11;102068.97;5010923;28;20218;-72
2021/10/25 02:55:50;;;;;;;9.97;6.03;;;;;;;3.31;86.26;102068.09;5010483;28;20559;-72
2021/10/25 02:58:16;;;;;;;10.00;5.67;;;;;;;3.30;85.86;102068.88;5013296;28;20194;-71
2021/10/25 03:00:48;;;;;;;10.77;5.50;;;;;;;3.30;85.78;102063.81;5006741;28;20203;-73
2021/10/25 03:03:13;;;;;;;7.20;5.03;;;;;;;3.26;85.52;102073.63;4992868;28;20281;-71
2021/10/25 03:05:39;;;;;;;9.37;5.23;;;;;;;3.23;85.25;102070.88;5011022;28;20195;-72
2021/10/25 03:08:05;;;;;;;7.80;5.60;;;;;;;3.21;85.88;102065.72;5011382;28;20192;-72
2021/10/25 03:10:31;;;;;;;9.03;5.60;;;;;;;3.16;85.82;102069.59;5011413;28;20220;-72
2021/10/25 03:12:57;;;;;;;8.23;4.43;;;;;;;3.15;85.16;102067.84;5010919;28;20787;-72
2021/10/25 03:15:23;;;;;;;8.23;5.13;;;;;;;3.14;84.67;102063.56;5012440;28;20183;-72
2021/10/25 03:17:48;;;;;;;6.90;4.93;;;;;;;3.14;84.54;102067.72;5010302;28;20190;-71
2021/10/25 03:20:18;;;;;;;7.57;5.07;;;;;;;3.14;85.08;102061.03;5009203;28;20227;-73
2021/10/25 03:22:45;;;;;;;9.10;5.27;;;;;;;3.07;85.62;102061.38;5010555;28;20180;-73
2021/10/25 03:25:13;;;;;;;10.40;5.60;;;;;;;3.10;85.97;102056.53;5011112;28;20246;-73
2021/10/25 03:27:40;;;;;;;8.53;5.67;;;;;;;3.13;86.02;102053.34;4990347;28;20184;-73
2021/10/25 03:30:06;;;;;;;10.43;6.03;;;;;;;3.16;86.47;102049.34;5005864;28;21047;-73
2021/10/25 03:32:33;;;;;;;8.43;5.60;;;;;;;3.18;86.67;102047.78;5010020;28;20179;-73
2021/10/25 03:35:18;;;;;;;8.57;5.60;;;;;;;3.22;86.11;102051.44;5011919;28;20223;-73
2021/10/25 03:37:44;;;;;;;8.77;5.77;;;;;;;3.16;86.03;102041.75;5005490;28;20215;-73
2021/10/25 03:40:10;;;;;;;11.37;6.80;;;;;;;3.16;85.64;102046.81;5010668;28;20199;-71
2021/10/25 03:42:42;;;;;;;15.97;8.80;;;;;;;3.12;85.23;102052.44;4993715;28;20203;-71
2021/10/25 03:45:28;;;;;;;15.03;10.03;;;;;;;3.07;85.88;102047.84;5011165;28;20559;-73
2021/10/25 03:50:23;;;;;;;19.73;11.10;;;;;;;3.05;86.05;102045.22;5010489;28;20180;-73
2021/10/25 03:53:13;;;;;;;14.43;10.47;;;;;;;3.03;85.89;102049.28;5009164;28;20269;-72
2021/10/25 03:55:57;;;;;;;13.93;9.63;;;;;;;3.02;85.44;102049.16;5008152;28;20188;-72
2021/10/25 04:26:44;;;;;;;9.20;5.60;;;;;;;2.87;85.79;102040.53;4990260;28;20192;-71
2021/10/25 04:29:13;;;;;;;6.87;5.17;;;;;;;2.88;84.97;102044.81;4991627;28;20192;-71
2021/10/25 04:31:38;;;;;;;8.00;5.50;;;;;;;2.83;85.46;102039.47;5006173;28;20188;-73
2021/10/25 04:34:04;;;;;;;9.20;5.43;;;;;;;2.79;84.93;102036.59;4990061;28;20211;-73
2021/10/25 04:36:48;;;;;;;5.93;4.90;;;;;;;2.80;84.97;102041.78;5000469;28;20199;-73
2021/10/25 04:39:25;;;;;;;7.60;5.43;;;;;;;2.80;85.49;102036.72;5009588;28;20270;-72
2021/10/25 04:41:55;;;;;;;7.40;5.60;;;;;;;2.77;85.35;102028.94;5009641;28;20188;-72
2021/10/25 04:44:20;;;;;;;7.87;5.73;;;;;;;2.76;86.07;102027.16;5009429;28;20293;-73
2021/10/25 04:46:45;;;;;;;11.10;5.87;;;;;;;2.82;86.62;102025.06;5009158;28;20313;-72
2021/10/25 04:49:11;;;;;;;6.80;4.90;;;;;;;2.81;85.72;102024.97;5009469;28;20195;-72
2021/10/25 04:52:04;;;;;;;8.90;5.53;;;;;;;2.79;86.43;102018.91;4994820;28;20261;-72
2021/10/25 04:54:31;;;;;;;8.17;5.27;;;;;;;2.78;85.50;102020.56;5010687;28;20207;-71
2021/10/25 04:56:58;;;;;;;9.23;5.43;;;;;;;2.75;85.78;102019.50;5006580;28;20234;-72
2021/10/25 04:59:24;;;;;;;8.63;5.60;;;;;;;2.74;86.31;102023.66;5001183;28;20223;-73
2021/10/25 05:01:49;;;;;;;6.77;5.43;;;;;;;2.76;86.35;102023.78;4988007;28;20176;-73
2021/10/25 05:04:15;;;;;;;11.53;6.33;;;;;;;2.80;86.27;102021.53;5006261;28;20294;-74
2021/10/25 05:06:41;;;;;;;8.17;5.53;;;;;;;2.74;86.01;102028.72;5003553;28;20257;-70
2021/10/25 05:09:07;;;;;;;8.77;5.80;;;;;;;2.75;85.97;102024.53;5008123;28;20238;-71
2021/10/25 05:11:33;;;;;;;10.40;5.47;;;;;;;2.71;85.55;102025.97;5007800;28;20199;-72
2021/10/25 05:13:58;;;;;;;8.60;5.17;;;;;;;2.64;85.23;102023.81;5007474;28;20554;-71
2021/10/25 05:16:24;;;;;;;7.13;5.37;;;;;;;2.59;84.99;102027.66;5008862;28;20286;-73
2021/10/25 05:19:05;;;;;;;7.50;4.87;;;;;;;2.61;85.07;102018.53;5008768;28;20241;-73
2021/10/25 05:21:30;;;;;;;9.17;6.00;;;;;;;2.54;85.43;102020.53;4992421;28;20231;-73
2021/10/25 05:23:56;;;;;;;9.13;5.07;;;;;;;2.57;85.06;102025.78;5009249;28;20303;-72
2021/10/25 05:26:21;;;;;;;7.83;5.23;;;;;;;2.56;85.58;102029.06;5008777;28;20217;-72
2021/10/25 05:28:47;;;;;;;8.13;5.10;;;;;;;2.49;84.94;102019.31;5009028;28;20191;-72
2021/10/25 05:31:13;;;;;;;9.57;5.77;;;;;;;2.56;85.67;102019.84;5008797;28;20659;-72
2021/10/25 05:33:41;;;;;;;8.90;6.03;;;;;;;2.55;86.02;102019.75;5008734;28;20215;-72
2021/10/25 05:36:08;;;;;;;11.00;5.67;;;;;;;2.52;85.83;102022.94;5008516;28;20635;-73
2021/10/25 05:38:36;;;;;;;9.63;6.27;;;;;;;2.57;86.46;102016.53;5008802;28;20270;-72
2021/10/25 05:41:04;;;;;;;10.23;6.07;;;;;;;2.56;86.23;102017.31;5008395;28;20213;-72
2021/10/25 05:43:29;;;;;;;12.43;7.03;;;;;;;2.62;86.79;102019.41;5008050;28;20250;-72
2021/10/25 05:45:56;;;;;;;10.63;6.40;;;;;;;2.60;87.40;102019.31;5008382;28;20686;-72
2021/10/25 05:48:22;;;;;;;9.27;5.97;;;;;;;2.60;86.81;102015.88;5012135;28;20198;-73
2021/10/25 05:50:48;;;;;;;9.10;6.00;;;;;;;2.55;86.79;102018.09;5011761;28;20513;-73
2021/10/25 05:53:15;;;;;;;6.80;5.60;;;;;;;2.57;87.01;102014.03;5008535;28;20720;-72
2021/10/25 05:55:42;;;;;;;9.13;6.30;;;;;;;2.67;87.70;102013.88;5008332;28;20205;-72
2021/10/25 05:58:18;;;;;;;7.37;6.23;;;;;;;2.61;87.99;102017.63;5008326;28;20191;-72
2021/10/25 06:00:48;;;;;;;11.37;7.40;;;;;;;2.71;87.56;102010.78;5008312;28;20767;-72
2021/10/25 06:03:27;;;;;;;12.27;7.10;;;;;;;2.72;87.70;102012.53;5008373;28;20218;-72
2021/10/25 06:05:52;;;;;;;10.83;7.27;;;;;;;2.76;88.02;102011.13;4991742;28;20237;-72
2021/10/25 06:08:18;;;;;;;12.77;8.20;;;;;;;2.76;87.95;102009.47;5008792;28;20191;-72
2021/10/25 06:10:45;;;;;;;11.77;7.23;;;;;;;2.82;87.70;102006.47;5008681;28;20241;-73
2021/10/25 06:16:14;;;;;;;9.90;6.47;;;;;;;2.78;87.25;102009.56;4977754;28;20227;-72
2021/10/25 06:18:44;;;;;;;8.63;6.43;;;;;;;2.89;87.50;102004.47;5008689;28;20183;-72
2021/10/25 06:21:11;;;;;;;10.20;6.47;;;;;;;2.90;88.24;102001.16;5008044;28;20760;-71
2021/10/25 06:23:38;;;;;;;7.63;6.27;;;;;;;2.90;87.78;102005.38;5008271;28;20215;-72
2021/10/25 06:26:09;;;;;;;13.57;6.80;;;;;;;2.89;87.13;102004.47;5008153;28;20223;-71
2021/10/25 06:28:39;;;;;;;9.53;5.87;;;;;;;2.91;87.46;102004.59;4992736;28;20623;-71
2021/10/25 06:31:05;;;;;;;9.17;6.40;;;;;;;2.96;87.08;102006.66;5008200;28;20263;-71
2021/10/25 06:33:49;;;;;;;7.47;5.97;;;;;;;2.92;86.83;101997.09;5010054;28;20353;-71
2021/10/25 06:36:29;;;;;;;8.43;5.93;;;;;;;2.90;86.07;101997.78;5009879;28;20187;-70
2021/10/25 06:39:10;;;;;;;8.70;5.40;;;;;;;2.90;85.67;101992.72;5007641;28;20672;-73
2021/10/25 06:41:39;;;;;;;10.17;6.07;;;;;;;2.91;86.09;101989.41;5008196;28;20199;-72
2021/10/25 06:44:06;;;;;;;11.73;6.97;;;;;;;2.90;85.92;101995.25;5007934;28;20207;-72
2021/10/25 06:46:32;;;;;;;7.63;6.50;;;;;;;2.89;86.02;102004.47;5007731;28;20244;-72
2021/10/25 06:49:00;;;;;;;10.63;5.83;;;;;;;2.90;85.36;101992.72;5007943;28;20223;-73
2021/10/25 06:51:28;;;;;;;7.63;6.00;;;;;;;2.89;86.19;101996.88;5007694;28;20194;-72
2021/10/25 06:53:53;;;;;;;7.57;5.70;;;;;;;2.90;85.94;102000.31;5007580;28;20195;-72
2021/10/25 06:56:20;;;;;;;9.53;5.93;;;;;;;2.92;86.02;102006.34;5010279;28;20273;-72
2021/10/25 06:58:45;;;;;;;10.17;5.73;;;;;;;2.90;85.87;102015.47;5011314;28;20179;-72
2021/10/25 07:01:11;;;;;;;8.07;5.73;;;;;;;2.98;84.96;102004.22;5012688;28;20581;-72
2021/10/25 07:03:39;;;;;;;11.53;6.93;;;;;;;2.98;85.06;102007.63;5011429;28;20266;-72
2021/10/25 07:06:07;;;;;;;9.47;6.07;;;;;;;3.01;85.45;102009.47;5011139;28;20594;-73
2021/10/25 07:08:34;;;;;;;9.77;5.83;;;;;;;3.09;85.38;102016.81;5011321;28;20183;-72
2021/10/25 07:11:01;;;;;;;8.43;6.00;;;;;;;3.15;85.16;102013.81;5012752;28;20186;-73
2021/10/25 07:13:26;;;;;;;8.23;6.07;;;;;;;3.23;85.59;102027.88;5011332;28;20231;-72
2021/10/25 07:16:04;;;;;;;8.63;5.63;;;;;;;3.27;85.39;102022.25;4995188;28;20234;-73
2021/10/25 07:18:38;;;;;;;8.57;5.77;;;;;;;3.41;85.44;102019.84;5011540;28;20195;-72
2021/10/25 08:04:06;;;;;;;7.87;5.20;;;;;;;5.75;82.16;102016.00;5010338;28;20250;-72
2021/10/25 08:12:08;;;;;;;8.33;4.70;;;;;;;6.48;80.11;102004.94;4967641;28;20200;-73
2021/10/25 08:14:42;;;;;;;8.37;5.00;;;;;;;6.66;79.79;102002.50;4990553;28;20651;-73
2021/10/25 08:17:09;;;;;;;6.93;4.87;;;;;;;6.73;79.55;101999.50;4990399;28;20211;-73
2021/10/25 08:19:35;;;;;;;6.60;4.70;;;;;;;6.82;79.37;101999.97;5007651;28;20718;-71
2021/10/25 08:22:06;;;;;;;9.17;4.90;;;;;;;7.05;78.39;102002.06;5009648;28;20184;-73
2021/10/25 08:24:36;;;;;;;6.93;4.53;;;;;;;7.16;78.09;102001.81;5009908;28;20265;-73
2021/10/25 08:27:08;;;;;;;5.73;4.63;;;;;;;7.39;77.36;101992.78;5009345;28;20186;-73
2021/10/25 08:29:34;;;;;;;6.50;4.43;;;;;;;7.66;76.40;101995.03;5011285;28;20229;-73
2021/10/25 08:40:00;;;;;;;7.03;4.70;;;;;;;7.82;75.85;102005.16;5009455;28;20270;-73
2021/10/25 08:42:37;;;;;;;7.07;4.73;;;;;;;8.19;74.48;101995.03;5009687;28;20236;-73
2021/10/25 08:45:13;;;;;;;10.87;4.53;;;;;;;8.62;73.54;101993.72;5009453;28;20186;-73
2021/10/25 08:47:41;;;;;;;4.83;3.97;;;;;;;9.28;71.18;101991.59;4993149;28;20191;-73
2021/10/25 08:50:10;;;;;;;7.73;4.10;;;;;;;11.79;63.29;101966.28;5009634;28;20207;-73
2021/10/25 08:52:36;;;;;;;8.43;4.37;;;;;;;15.68;49.69;101937.41;5009728;28;20538;-73
2021/10/25 08:55:09;;;;;;;7.17;4.07;;;;;;;13.63;55.63;101941.69;5010895;28;20226;-73
2021/10/25 08:57:35;;;;;;;5.73;3.70;;;;;;;12.49;58.85;101954.81;5009229;28;20198;-74
2021/10/25 09:00:08;;;;;;;5.77;4.10;;;;;;;12.64;59.67;101960.38;5009293;28;20215;-73
2021/10/25 09:02:59;;;;;;;5.20;4.00;;;;;;;14.20;54.38;101953.34;4994961;28;20656;-73
2021/10/25 09:05:25;;;;;;;6.03;4.03;;;;;;;14.33;51.66;101945.97;5009241;28;20194;-73
2021/10/25 09:07:52;;;;;;;6.33;4.30;;;;;;;17.05;47.15;101932.44;5009180;28;20684;-74
2021/10/25 09:10:33;;;;;;;4.63;3.83;;;;;;;16.93;45.27;101938.34;5009145;28;20180;-73
2021/10/25 09:13:07;;;;;;;4.87;4.07;;;;;;;17.77;44.72;101927.97;5008866;28;20236;-73
2021/10/25 09:15:37;;;;;;;6.80;4.37;;;;;;;19.59;40.54;101927.00;5008870;28;20179;-74
2021/10/25 09:18:27;;;;;;;5.77;3.63;;;;;;;20.54;38.87;101917.31;5009096;28;20199;-74
2021/10/25 09:20:57;;;;;;;4.70;3.63;;;;;;;18.28;42.64;101931.72;5009013;28;20203;-74
2021/10/25 09:23:36;;;;;;;5.87;4.23;;;;;;;18.24;43.36;101929.97;5008836;28;20207;-74
2021/10/25 09:26:11;;;;;;;5.37;3.80;;;;;;;19.99;40.69;101913.94;4992323;28;20194;-74
2021/10/25 09:28:48;;;;;;;6.40;4.73;;;;;;;20.78;37.60;101910.22;5008903;28;20562;-73
2021/10/25 09:31:34;;;;;;;6.57;4.63;;;;;;;22.49;35.69;101891.41;5008571;28;20206;-74
2021/10/25 09:34:13;;;;;;;6.37;4.50;;;;;;;20.16;38.71;101891.41;5008852;28;20218;-73
2021/10/25 09:37:10;;;;;;;6.53;3.87;;;;;;;16.89;45.74;101912.38;5010326;28;20222;-73
2021/10/25 09:39:51;;;;;;;7.60;4.63;;;;;;;15.00;51.75;101924.97;5008725;28;20207;-73
2021/10/25 09:42:42;;;;;;;5.90;4.70;;;;;;;13.88;55.36;101933.69;5008919;28;20187;-73
2021/10/25 09:50:58;;;;;;;6.27;5.00;;;;;;;16.27;49.64;101923.66;5008888;28;20186;-72
2021/10/25 09:53:34;;;;;;;9.50;5.30;;;;;;;17.64;45.88;101919.19;5008880;28;20191;-73
2021/10/25 09:56:03;;;;;;;5.27;4.60;;;;;;;19.05;42.73;101913.91;5008524;28;20266;-72
2021/10/25 09:58:44;;;;;;;6.03;4.83;;;;;;;18.24;44.72;101918.75;5008744;28;20194;-73
2021/10/25 10:01:15;;;;;;;5.63;5.03;;;;;;;19.23;41.73;101919.16;5008415;28;20207;-73
2021/10/25 10:03:45;;;;;;;5.27;4.50;;;;;;;21.12;38.73;101910.94;5008865;28;20207;-73
2021/10/25 10:06:24;;;;;;;7.43;5.20;;;;;;;21.29;37.93;101903.88;5008451;28;20678;-73
2021/10/25 10:08:58;;;;;;;5.37;4.60;;;;;;;21.47;37.61;101904.56;5008588;28;20289;-74
2021/10/25 10:11:25;;;;;;;7.00;4.43;;;;;;;19.43;40.82;101923.50;5008350;28;20187;-73
2021/10/25 10:13:51;;;;;;;4.77;4.27;;;;;;;20.77;38.47;101907.66;5008015;28;20226;-73
2021/10/25 10:16:32;;;;;;;8.63;4.67;;;;;;;20.93;38.95;101901.50;5008002;28;20183;-73
2021/10/25 10:19:02;;;;;;;5.47;4.45;;;;;;;22.68;36.49;101888.56;5009717;28;20206;-74
2021/10/25 10:21:46;;;;;;;6.72;4.88;;;;;;;23.67;34.14;101881.78;5008222;28;20223;-73
2021/10/25 10:24:24;;;;;;;6.63;5.20;;;;;;;21.62;36.63;101898.38;5008222;28;20226;-73
2021/10/25 10:26:58;;;;;;;6.32;4.63;;;;;;;23.63;33.94;101885.38;5008394;28;20195;-74
2021/10/25 10:29:25;;;;;;;5.60;4.53;;;;;;;23.38;34.19;101877.97;5008609;28;20193;-73
2021/10/25 10:32:03;;;;;;;5.32;4.82;;;;;;;23.40;33.92;101877.03;5012126;28;20241;-73
2021/10/25 10:35:07;;;;;;;8.18;5.07;;;;;;;24.41;32.85;101875.16;4933262;29;20217;-73
2021/10/25 10:38:02;;;;;;;5.65;5.13;;;;;;;23.82;33.55;101872.81;4987507;28;20567;-72
2021/10/25 10:40:37;;;;;;;6.00;4.65;;;;;;;25.58;32.43;101864.56;4992233;28;20762;-72
2021/10/25 10:43:26;;;;;;;5.07;4.53;;;;;;;23.90;32.61;101869.19;4994161;28;20289;-72
2021/10/25 10:46:24;;;;;;;4.72;4.32;;;;;;;23.84;33.34;101863.19;4992256;28;20232;-73
2021/10/25 10:48:59;;;;;;;6.75;4.70;;;;;;;24.37;32.74;101858.66;4995688;28;20169;-73
2021/10/25 10:51:29;;;;;;;5.88;4.40;;;;;;;24.65;32.61;101859.81;5013112;28;20270;-73
2021/10/25 10:54:04;;;;;;;5.82;4.53;;;;;;;21.60;37.89;101874.91;5012527;28;20277;-72
2021/10/25 10:57:07;;;;;;;5.10;4.33;;;;;;;20.14;40.83;101880.16;5012661;28;20668;-72
2021/10/25 10:59:34;;;;;;;5.10;4.57;;;;;;;18.27;44.37;101888.50;5012516;28;20207;-73
2021/10/25 11:02:00;;;;;;;7.20;4.80;;;;;;;18.11;46.14;101883.25;5012883;28;20199;-73
2021/10/25 11:04:33;;;;;;;5.13;4.40;;;;;;;18.12;46.24;101891.03;5012814;28;20694;-73
2021/10/25 11:07:04;;;;;;;7.07;5.13;;;;;;;16.89;49.63;101895.16;5012232;28;20263;-72
2021/10/25 11:09:31;;;;;;;6.77;4.93;;;;;;;18.58;45.14;101882.63;5012754;28;20258;-73
2021/10/25 11:11:59;;;;;;;6.27;4.77;;;;;;;20.56;41.09;101872.16;5013064;28;20245;-72
2021/10/25 11:14:28;;;;;;;6.90;4.87;;;;;;;16.76;48.26;101892.44;5011612;28;20778;-72
2021/10/25 11:19:34;;;;;;;7.90;4.93;;;;;;;19.61;44.70;101889.72;5012209;28;20716;-72
2021/10/25 11:22:02;;;;;;;8.10;4.53;;;;;;;18.76;45.28;101876.63;5012618;28;20266;-72
2021/10/25 11:24:28;;;;;;;6.90;4.57;;;;;;;17.66;48.13;101870.88;5012556;28;20258;-72
2021/10/25 11:26:56;;;;;;;6.00;4.33;;;;;;;17.21;49.43;101880.81;5011018;28;20222;-72
2021/10/25 11:29:27;;;;;;;8.53;4.67;;;;;;;15.91;53.72;101880.09;5010743;28;20195;-72
2021/10/25 11:32:00;;;;;;;5.93;4.53;;;;;;;15.23;54.95;101887.53;5011077;28;20183;-71
2021/10/25 11:34:28;;;;;;;6.80;4.73;;;;;;;15.03;57.23;101888.91;5012213;28;20211;-74
2021/10/25 11:36:58;;;;;;;8.17;4.90;;;;;;;14.62;57.78;101902.72;5011791;28;20191;-73
2021/10/25 11:39:37;;;;;;;8.47;5.20;;;;;;;14.39;58.11;101910.00;5012112;28;20190;-73
2021/10/25 11:42:05;;;;;;;8.87;4.83;;;;;;;14.76;58.65;101897.03;5011142;28;20186;-74
2021/10/25 11:44:32;;;;;;;8.10;4.50;;;;;;;15.21;57.20;101889.25;5011984;28;20704;-73
2021/10/25 11:46:57;;;;;;;7.00;4.30;;;;;;;15.48;55.83;101882.84;5011889;28;20572;-73
2021/10/25 11:49:23;;;;;;;5.03;4.20;;;;;;;15.90;54.71;101878.38;5011860;28;20194;-73
2021/10/25 11:51:51;;;;;;;8.07;4.50;;;;;;;15.63;55.34;101877.97;5010552;28;20588;-73
2021/10/25 11:54:16;;;;;;;7.37;4.80;;;;;;;14.79;57.93;101879.03;5011593;28;20218;-73
2021/10/25 11:56:50;;;;;;;7.83;5.37;;;;;;;14.78;58.74;101882.44;5011710;28;20191;-72
2021/10/25 11:59:16;;;;;;;8.43;4.63;;;;;;;14.49;59.31;101888.72;5012003;28;20187;-73
2021/10/25 12:01:43;;;;;;;6.67;4.50;;;;;;;14.11;59.37;101881.88;5011655;28;20215;-73
2021/10/25 12:04:09;;;;;;;6.90;4.80;;;;;;;14.03;61.26;101885.09;5010454;28;20203;-73
2021/10/25 12:06:35;;;;;;;5.27;4.23;;;;;;;13.78;61.63;101880.25;5011397;28;20190;-73
2021/10/25 12:09:06;;;;;;;6.27;4.20;;;;;;;13.80;62.66;101878.56;5011396;28;20206;-73
2021/10/25 12:11:48;;;;;;;6.70;4.37;;;;;;;13.68;62.67;101883.44;5011693;28;20937;-73
2021/10/25 12:14:16;;;;;;;7.97;3.87;;;;;;;13.71;63.36;101880.97;5011553;28;20226;-73
2021/10/25 12:16:47;;;;;;;7.23;4.30;;;;;;;13.53;63.42;101880.53;5011332;28;20747;-73
2021/10/25 12:19:13;;;;;;;7.03;4.33;;;;;;;13.32;63.81;101882.56;5011590;28;20194;-73
2021/10/25 12:21:38;;;;;;;6.83;4.43;;;;;;;13.38;63.92;101881.00;5010129;28;20219;-74
2021/10/25 12:24:09;;;;;;;9.57;4.97;;;;;;;13.16;63.89;101875.31;5011534;28;20572;-73
2021/10/25 12:26:35;;;;;;;7.07;4.47;;;;;;;13.26;64.15;101878.13;5011017;28;20201;-73
2021/10/25 12:29:11;;;;;;;5.03;4.17;;;;;;;13.23;64.83;101877.19;5011327;28;20187;-73
2021/10/25 12:31:37;;;;;;;7.27;4.37;;;;;;;13.18;65.15;101882.22;5011332;28;20864;-73
2021/10/25 12:34:03;;;;;;;6.93;4.50;;;;;;;13.19;65.57;101872.78;5011269;28;20227;-73
2021/10/25 12:36:35;;;;;;;7.40;4.33;;;;;;;12.97;65.87;101876.53;5010899;28;20246;-73
2021/10/25 12:39:07;;;;;;;8.30;4.67;;;;;;;12.86;66.30;101871.06;5009867;28;20266;-73
2021/10/25 12:41:45;;;;;;;8.97;4.73;;;;;;;12.76;67.11;101870.78;5009257;28;20273;-73
2021/10/25 12:44:10;;;;;;;6.70;4.53;;;;;;;12.80;67.82;101863.19;5011038;28;20207;-72
2021/10/25 12:46:36;;;;;;;8.07;4.80;;;;;;;12.95;67.20;101855.88;5010814;28;20241;-73
2021/10/25 12:49:03;;;;;;;10.03;4.97;;;;;;;12.89;68.03;101858.28;5010703;28;20194;-73
2021/10/25 12:51:35;;;;;;;7.07;4.20;;;;;;;13.04;67.63;101851.84;5010622;28;20229;-72
2021/10/25 12:54:07;;;;;;;8.57;4.70;;;;;;;12.99;67.33;101851.72;5010377;28;20261;-73
2021/10/25 12:56:32;;;;;;;7.33;4.73;;;;;;;12.75;68.17;101856.16;5009142;28;20546;-73
2021/10/25 12:59:00;;;;;;;6.73;4.50;;;;;;;12.73;68.48;101851.00;5010694;28;20188;-74
2021/10/25 13:01:25;;;;;;;5.70;3.87;;;;;;;12.79;68.75;101845.16;5010664;28;20254;-73
2021/10/25 13:03:50;;;;;;;10.70;5.37;;;;;;;12.72;69.68;101851.81;5010640;28;20278;-74
2021/10/25 13:06:16;;;;;;;5.93;4.60;;;;;;;12.70;69.74;101847.47;5010372;28;20218;-73
2021/10/25 13:08:41;;;;;;;10.03;4.53;;;;;;;12.69;69.77;101844.06;5010567;28;20195;-73
2021/10/25 13:11:13;;;;;;;7.10;4.60;;;;;;;12.72;69.76;101844.13;5010687;28;20183;-73
2021/10/25 13:13:42;;;;;;;5.00;4.10;;;;;;;12.72;69.98;101838.13;5009933;28;20226;-74
2021/10/25 13:16:15;;;;;;;10.70;4.80;;;;;;;12.70;69.89;101838.06;5010305;28;20180;-74
2021/10/25 13:18:40;;;;;;;7.33;4.23;;;;;;;12.67;69.59;101840.56;5010267;28;20179;-73